METAR Formatted Surface Weather Observation
Issued by NWS Duluth, MN

Home | Current Version | Previous Version | Text Only | Print | Product List | Glossary On
Versions: 1 2
SAUS43 KDLH 241803 RRB
METAR KINL 241755Z AUTO 30009KT 10SM CLR 10/02 A3042 RMK AO2 SLP314

     I6001 T01000022 10100 21061 58002 is the U.S. government's official web portal to all federal, state and local government web resources and services.